createdAt,value
2019-04-28T00:00:12.015Z,4.80
2019-04-28T00:03:00.768Z,4.70
2019-04-28T00:05:48.698Z,4.70
2019-04-28T00:08:36.590Z,4.70
2019-04-28T00:11:24.107Z,4.60
2019-04-28T00:14:12.039Z,4.60
2019-04-28T00:17:01.075Z,4.70
2019-04-28T00:19:48.767Z,4.70
2019-04-28T00:22:42.819Z,4.70
2019-04-28T00:25:31.275Z,4.80
2019-04-28T00:28:18.705Z,4.90
2019-04-28T00:31:06.382Z,4.90
2019-04-28T00:33:53.857Z,4.80
2019-04-28T00:36:43.073Z,4.80
2019-04-28T00:39:31.088Z,4.90
2019-04-28T00:42:18.363Z,5.00
2019-04-28T00:45:07.551Z,5.10
2019-04-28T00:47:55.197Z,5.20
2019-04-28T00:50:43.811Z,5.30
2019-04-28T00:53:31.422Z,5.40
2019-04-28T00:56:18.599Z,5.40
2019-04-28T00:59:06.251Z,5.40
2019-04-28T01:01:58.863Z,5.40
2019-04-28T01:04:46.648Z,5.40
2019-04-28T01:07:34.386Z,5.40
2019-04-28T01:10:23.630Z,5.20
2019-04-28T01:13:11.789Z,5.10
2019-04-28T01:16:19.407Z,5.20
2019-04-28T01:19:15.901Z,5.30
2019-04-28T01:22:13.973Z,5.30
2019-04-28T01:25:01.699Z,5.30
2019-04-28T01:27:54.188Z,5.30
2019-04-28T01:30:52.378Z,5.10
2019-04-28T01:34:02.424Z,4.80
2019-04-28T01:36:51.673Z,4.80
2019-04-28T01:39:41.282Z,4.60
2019-04-28T01:42:30.209Z,4.50
2019-04-28T01:45:17.918Z,4.60
2019-04-28T01:48:05.923Z,4.60
2019-04-28T01:50:53.390Z,4.60
2019-04-28T01:53:41.604Z,4.50
2019-04-28T01:56:30.441Z,4.50
2019-04-28T01:59:20.037Z,4.60
2019-04-28T02:02:09.956Z,4.60
2019-04-28T02:04:57.423Z,4.40
2019-04-28T02:07:44.916Z,4.40
2019-04-28T02:10:32.721Z,4.40
2019-04-28T02:13:21.558Z,4.40
2019-04-28T02:16:09.859Z,4.20
2019-04-28T02:18:59.592Z,4.30
2019-04-28T02:22:04.268Z,4.40
2019-04-28T02:24:51.988Z,4.50
2019-04-28T02:27:40.185Z,4.40
2019-04-28T02:30:42.261Z,4.20
2019-04-28T02:33:17.828Z,4.00
2019-04-28T02:36:08.703Z,4.00
2019-04-28T02:38:55.235Z,3.90
2019-04-28T02:41:43.823Z,3.80
2019-04-28T02:44:34.727Z,3.90
2019-04-28T02:47:22.027Z,3.90
2019-04-28T02:50:21.083Z,3.80
2019-04-28T02:53:15.447Z,3.70
2019-04-28T02:56:03.332Z,3.60
2019-04-28T02:58:51.254Z,3.70
2019-04-28T03:01:40.891Z,3.60
2019-04-28T03:04:30.801Z,3.60
2019-04-28T03:07:17.558Z,3.60
2019-04-28T03:10:05.932Z,3.60
2019-04-28T03:12:53.629Z,3.70
2019-04-28T03:15:42.244Z,3.80
2019-04-28T03:18:31.761Z,3.70
2019-04-28T03:21:21.348Z,3.70
2019-04-28T03:24:11.009Z,3.90
2019-04-28T03:27:10.817Z,4.00
2019-04-28T03:30:03.199Z,4.10
2019-04-28T03:32:58.460Z,4.20
2019-04-28T03:35:43.841Z,4.20
2019-04-28T03:38:30.952Z,4.30
2019-04-28T03:41:21.177Z,4.30
2019-04-28T03:44:11.267Z,4.30
2019-04-28T03:47:00.700Z,4.20
2019-04-28T03:49:47.146Z,4.30
2019-04-28T03:52:35.034Z,4.20
2019-04-28T03:55:23.242Z,4.20
2019-04-28T03:58:11.112Z,4.10
2019-04-28T04:01:02.662Z,4.10
2019-04-28T04:03:48.222Z,4.10
2019-04-28T04:06:36.471Z,4.10
2019-04-28T04:09:26.725Z,4.10
2019-04-28T04:12:41.164Z,4.10
2019-04-28T04:15:54.904Z,4.10
2019-04-28T04:18:52.998Z,4.10
2019-04-28T04:21:37.327Z,4.00
2019-04-28T04:24:25.076Z,4.00
2019-04-28T04:27:13.134Z,4.00
2019-04-28T04:30:01.912Z,3.80
2019-04-28T04:32:50.688Z,3.90
2019-04-28T04:35:43.119Z,3.90
2019-04-28T04:38:30.955Z,3.90
2019-04-28T04:41:17.729Z,3.90
2019-04-28T04:44:05.925Z,3.90
2019-04-28T04:46:53.655Z,4.00
2019-04-28T04:49:41.014Z,4.10
2019-04-28T04:52:30.446Z,4.10
2019-04-28T04:55:21.058Z,4.10
2019-04-28T04:58:07.647Z,4.10
2019-04-28T05:01:03.645Z,4.20
2019-04-28T05:03:54.058Z,4.10
2019-04-28T05:06:41.986Z,4.20
2019-04-28T05:09:31.121Z,4.00
2019-04-28T05:12:19.605Z,4.10
2019-04-28T05:15:07.614Z,4.20
2019-04-28T05:17:55.348Z,3.90
2019-04-28T05:20:42.815Z,4.10
2019-04-28T05:23:50.973Z,4.30
2019-04-28T05:26:40.927Z,4.40
2019-04-28T05:29:28.181Z,4.60
2019-04-28T05:32:16.253Z,4.70
2019-04-28T05:35:03.500Z,4.80
2019-04-28T05:37:50.682Z,4.60
2019-04-28T05:40:39.858Z,4.80
2019-04-28T05:43:27.226Z,4.90
2019-04-28T05:46:14.910Z,5.00
2019-04-28T05:49:10.838Z,5.10
2019-04-28T05:52:02.182Z,5.20
2019-04-28T05:54:55.785Z,5.20
2019-04-28T05:57:51.542Z,5.10
2019-04-28T06:01:00.376Z,4.90
2019-04-28T06:03:49.652Z,5.00
2019-04-28T06:06:40.557Z,5.10
2019-04-28T06:09:39.891Z,5.20
2019-04-28T06:12:27.509Z,5.40
2019-04-28T06:15:15.202Z,5.40
2019-04-28T06:18:02.857Z,5.10
2019-04-28T06:20:50.667Z,5.00
2019-04-28T06:23:38.812Z,5.10
2019-04-28T06:26:27.018Z,5.00
2019-04-28T06:29:14.687Z,5.20
2019-04-28T06:32:02.370Z,5.20
2019-04-28T06:34:49.814Z,5.10
2019-04-28T06:37:37.649Z,5.00
2019-04-28T06:40:25.331Z,5.10
2019-04-28T06:43:12.923Z,5.30
2019-04-28T06:46:00.946Z,5.60
2019-04-28T06:48:49.043Z,5.70
2019-04-28T06:51:36.490Z,5.70
2019-04-28T06:54:24.111Z,5.50
2019-04-28T06:57:11.846Z,5.60
2019-04-28T06:59:59.458Z,5.60
2019-04-28T07:02:47.214Z,5.90
2019-04-28T07:05:35.102Z,6.10
2019-04-28T07:08:22.655Z,6.30
2019-04-28T07:11:10.318Z,6.50
2019-04-28T07:13:57.721Z,6.70
2019-04-28T07:16:45.418Z,6.90
2019-04-28T07:19:33.530Z,7.10
2019-04-28T07:22:26.970Z,7.20
2019-04-28T07:25:14.953Z,7.30
2019-04-28T07:28:02.739Z,7.40
2019-04-28T07:30:50.442Z,7.50
2019-04-28T07:33:38.457Z,7.20
2019-04-28T07:36:26.423Z,7.30
2019-04-28T07:39:14.479Z,7.30
2019-04-28T07:42:01.900Z,6.90
2019-04-28T07:44:49.621Z,7.10
2019-04-28T07:47:37.224Z,7.20
2019-04-28T07:50:24.763Z,7.10
2019-04-28T07:53:17.919Z,7.10
2019-04-28T07:56:06.070Z,7.20
2019-04-28T07:58:53.871Z,7.30
2019-04-28T08:01:41.945Z,7.20
2019-04-28T08:04:29.892Z,7.50
2019-04-28T08:07:17.927Z,7.80
2019-04-28T08:10:06.381Z,7.90
2019-04-28T08:12:54.189Z,7.60
2019-04-28T08:15:41.831Z,7.90
2019-04-28T08:18:31.665Z,8.20
2019-04-28T08:21:19.622Z,8.70
2019-04-28T08:24:07.803Z,8.90
2019-04-28T08:26:55.604Z,8.60
2019-04-28T08:29:43.255Z,8.90
2019-04-28T08:32:52.372Z,9.20
2019-04-28T08:35:40.331Z,8.50
2019-04-28T08:38:28.034Z,7.90
2019-04-28T08:41:16.023Z,7.90
2019-04-28T08:44:03.542Z,7.80
2019-04-28T08:46:51.567Z,8.00
2019-04-28T08:49:40.053Z,8.20
2019-04-28T08:52:27.975Z,8.10
2019-04-28T08:55:15.364Z,8.30
2019-04-28T08:58:03.287Z,8.20
2019-04-28T09:00:50.998Z,8.50
2019-04-28T09:03:39.094Z,8.70
2019-04-28T09:06:27.069Z,8.60
2019-04-28T09:09:17.187Z,8.50
2019-04-28T09:12:04.798Z,8.60
2019-04-28T09:14:52.528Z,8.60
2019-04-28T09:17:40.176Z,8.80
2019-04-28T09:20:27.921Z,9.00
2019-04-28T09:23:15.562Z,8.60
2019-04-28T09:26:03.569Z,8.50
2019-04-28T09:28:50.929Z,8.60
2019-04-28T09:31:39.001Z,8.60
2019-04-28T09:34:28.551Z,8.70
2019-04-28T09:37:16.257Z,8.80
2019-04-28T09:40:12.419Z,9.00
2019-04-28T09:43:14.621Z,9.00
2019-04-28T09:46:09.709Z,9.00
2019-04-28T09:48:57.524Z,9.10
2019-04-28T09:51:45.036Z,9.40
2019-04-28T09:54:32.762Z,9.50
2019-04-28T09:57:20.489Z,9.50
2019-04-28T10:00:09.606Z,9.00
2019-04-28T10:02:57.581Z,9.00
2019-04-28T10:05:46.689Z,9.00
2019-04-28T10:08:36.633Z,9.10
2019-04-28T10:11:30.335Z,9.40
2019-04-28T10:14:13.510Z,9.60
2019-04-28T10:17:01.323Z,9.70
2019-04-28T10:19:48.863Z,9.70
2019-04-28T10:22:36.981Z,9.80
2019-04-28T10:25:24.994Z,10.00
2019-04-28T10:28:12.710Z,10.10
2019-04-28T10:31:00.465Z,9.30
2019-04-28T10:33:51.333Z,9.40
2019-04-28T10:36:38.868Z,9.70
2019-04-28T10:39:35.093Z,9.90
2019-04-28T10:42:23.018Z,10.10
2019-04-28T10:45:13.039Z,10.00
2019-04-28T10:48:00.477Z,10.10
2019-04-28T10:50:47.915Z,9.80
2019-04-28T10:53:35.812Z,9.80
2019-04-28T10:56:23.389Z,9.80
2019-04-28T10:59:11.339Z,10.20
2019-04-28T11:01:59.151Z,10.20
2019-04-28T11:05:08.081Z,10.20
2019-04-28T11:07:48.253Z,9.90
2019-04-28T11:10:35.946Z,9.90
2019-04-28T11:13:23.593Z,9.90
2019-04-28T11:16:13.147Z,10.10
2019-04-28T11:19:01.058Z,10.10
2019-04-28T11:21:49.138Z,10.40
2019-04-28T11:24:36.686Z,10.20
2019-04-28T11:27:24.947Z,9.60
2019-04-28T11:30:13.638Z,10.10
2019-04-28T11:33:19.098Z,10.30
2019-04-28T11:36:07.126Z,9.80
2019-04-28T11:38:55.247Z,10.00
2019-04-28T11:41:43.359Z,10.20
2019-04-28T11:44:31.258Z,10.10
2019-04-28T11:47:21.409Z,10.20
2019-04-28T11:50:09.171Z,10.50
2019-04-28T11:52:56.618Z,10.40
2019-04-28T11:55:44.407Z,10.50
2019-04-28T11:58:32.210Z,10.30
2019-04-28T12:01:21.706Z,10.20
2019-04-28T12:04:11.415Z,10.50
2019-04-28T12:06:59.377Z,10.60
2019-04-28T12:10:05.784Z,10.50
2019-04-28T12:13:19.501Z,10.50
2019-04-28T12:16:30.359Z,10.40
2019-04-28T12:19:41.484Z,10.00
2019-04-28T12:22:29.473Z,10.00
2019-04-28T12:25:17.514Z,10.00
2019-04-28T12:28:05.556Z,10.10
2019-04-28T12:30:53.351Z,9.90
2019-04-28T12:33:40.837Z,9.90
2019-04-28T12:36:28.704Z,9.80
2019-04-28T12:39:16.149Z,9.60
2019-04-28T12:42:03.798Z,9.70
2019-04-28T12:44:51.638Z,9.60
2019-04-28T12:47:39.481Z,9.50
2019-04-28T12:50:32.099Z,9.40
2019-04-28T12:53:20.045Z,9.20
2019-04-28T12:56:08.177Z,9.10
2019-04-28T12:59:00.630Z,9.10
2019-04-28T13:01:58.589Z,9.00
2019-04-28T13:04:49.775Z,8.90
2019-04-28T13:07:38.494Z,8.90
2019-04-28T13:10:26.110Z,8.80
2019-04-28T13:13:13.572Z,8.90
2019-04-28T13:16:01.393Z,8.90
2019-04-28T13:18:48.927Z,9.00
2019-04-28T13:21:36.163Z,9.10
2019-04-28T13:24:23.764Z,9.20
2019-04-28T13:27:11.542Z,9.20
2019-04-28T13:29:58.700Z,9.40
2019-04-28T13:32:46.411Z,9.60
2019-04-28T13:35:34.129Z,9.60
2019-04-28T13:38:22.187Z,10.00
2019-04-28T13:41:10.096Z,10.00
2019-04-28T13:43:58.029Z,10.10
2019-04-28T13:46:45.919Z,10.20
2019-04-28T13:49:49.264Z,10.30
2019-04-28T13:52:37.137Z,10.20
2019-04-28T13:55:35.508Z,9.70
2019-04-28T13:58:26.553Z,9.50
2019-04-28T14:01:36.315Z,9.30
2019-04-28T14:04:41.451Z,9.00
2019-04-28T14:07:29.593Z,8.70
2019-04-28T14:10:17.714Z,8.50
2019-04-28T14:13:05.833Z,8.20
2019-04-28T14:15:53.663Z,7.80
2019-04-28T14:18:41.606Z,7.40
2019-04-28T14:21:29.943Z,7.00
2019-04-28T14:24:18.131Z,7.30
2019-04-28T14:27:06.323Z,7.30
2019-04-28T14:29:54.115Z,7.70
2019-04-28T14:32:42.128Z,7.90
2019-04-28T14:35:29.615Z,8.10
2019-04-28T14:38:17.322Z,8.30
2019-04-28T14:41:05.448Z,8.40
2019-04-28T14:43:53.478Z,8.40
2019-04-28T14:46:41.602Z,8.20
2019-04-28T14:49:29.363Z,8.00
2019-04-28T14:52:17.019Z,7.90
2019-04-28T14:55:05.689Z,7.60
2019-04-28T14:57:53.285Z,7.40
2019-04-28T15:00:45.897Z,7.20
2019-04-28T15:03:35.539Z,7.20
2019-04-28T15:06:32.076Z,7.40
2019-04-28T15:09:33.772Z,7.60
2019-04-28T15:12:21.498Z,7.70
2019-04-28T15:15:09.210Z,7.80
2019-04-28T15:17:56.925Z,7.80
2019-04-28T15:20:44.895Z,7.80
2019-04-28T15:23:32.502Z,7.70
2019-04-28T15:26:20.290Z,7.60
2019-04-28T15:29:07.882Z,7.40
2019-04-28T15:31:55.681Z,7.10
2019-04-28T15:34:43.606Z,7.10
2019-04-28T15:37:31.318Z,6.90
2019-04-28T15:40:19.378Z,6.90
2019-04-28T15:43:06.978Z,6.90
2019-04-28T15:45:55.254Z,6.70
2019-04-28T15:48:43.249Z,6.60
2019-04-28T15:51:31.231Z,6.80
2019-04-28T15:54:18.936Z,6.90
2019-04-28T15:57:06.746Z,6.70
2019-04-28T15:59:54.690Z,6.70
2019-04-28T16:02:43.065Z,6.70
2019-04-28T16:05:30.813Z,6.60
2019-04-28T16:08:18.738Z,6.60
2019-04-28T16:11:06.203Z,6.50
2019-04-28T16:13:54.609Z,6.40
2019-04-28T16:16:42.348Z,6.40
2019-04-28T16:19:30.350Z,6.20
2019-04-28T16:22:17.878Z,6.20
2019-04-28T16:25:05.983Z,6.10
2019-04-28T16:27:53.893Z,6.00
2019-04-28T16:30:41.365Z,6.00
2019-04-28T16:33:29.002Z,6.00
2019-04-28T16:36:17.166Z,6.20
2019-04-28T16:39:06.638Z,5.70
2019-04-28T16:41:54.406Z,5.70
2019-04-28T16:44:42.150Z,6.00
2019-04-28T16:47:30.158Z,6.00
2019-04-28T16:50:17.980Z,6.10
2019-04-28T16:53:05.846Z,6.10
2019-04-28T16:56:24.942Z,6.30
2019-04-28T16:59:34.742Z,6.30
2019-04-28T17:02:31.123Z,6.40
2019-04-28T17:05:19.094Z,6.20
2019-04-28T17:08:07.066Z,6.30
2019-04-28T17:10:55.207Z,6.30
2019-04-28T17:13:43.010Z,6.40
2019-04-28T17:16:30.546Z,6.50
2019-04-28T17:19:18.305Z,6.50
2019-04-28T17:22:06.078Z,6.50
2019-04-28T17:24:53.815Z,6.60
2019-04-28T17:27:41.300Z,6.60
2019-04-28T17:30:29.391Z,6.60
2019-04-28T17:33:17.357Z,6.60
2019-04-28T17:36:05.277Z,6.50
2019-04-28T17:38:52.933Z,6.60
2019-04-28T17:41:40.947Z,6.50
2019-04-28T17:44:28.477Z,6.40
2019-04-28T17:47:18.106Z,6.30
2019-04-28T17:50:06.107Z,6.30
2019-04-28T17:52:54.154Z,6.30
2019-04-28T17:55:42.117Z,6.10
2019-04-28T17:58:29.847Z,6.00
2019-04-28T18:01:29.882Z,5.70
2019-04-28T18:04:48.956Z,5.40
2019-04-28T18:07:37.892Z,5.30
2019-04-28T18:10:27.261Z,5.00
2019-04-28T18:13:15.551Z,5.00
2019-04-28T18:16:22.171Z,4.80
2019-04-28T18:19:11.766Z,4.90
2019-04-28T18:21:59.316Z,5.10
2019-04-28T18:24:46.797Z,5.20
2019-04-28T18:27:34.823Z,5.30
2019-04-28T18:30:24.579Z,5.20
2019-04-28T18:33:34.505Z,5.20
2019-04-28T18:36:28.620Z,5.20
2019-04-28T18:39:44.758Z,4.90
2019-04-28T18:42:38.891Z,4.80
2019-04-28T18:45:27.061Z,4.70
2019-04-28T18:48:14.968Z,4.70
2019-04-28T18:51:02.964Z,4.80
2019-04-28T18:53:50.869Z,4.90
2019-04-28T18:56:39.002Z,4.70
2019-04-28T18:59:26.760Z,4.60
2019-04-28T19:02:23.354Z,4.70
2019-04-28T19:05:11.302Z,4.90
2019-04-28T19:08:18.090Z,5.00
2019-04-28T19:11:17.430Z,5.00
2019-04-28T19:14:30.148Z,5.10
2019-04-28T19:17:28.626Z,4.80
2019-04-28T19:20:16.437Z,4.90
2019-04-28T19:23:04.130Z,5.00
2019-04-28T19:25:51.876Z,5.00
2019-04-28T19:28:39.427Z,4.90
2019-04-28T19:31:27.131Z,4.90
2019-04-28T19:34:14.697Z,4.70
2019-04-28T19:37:02.566Z,4.50
2019-04-28T19:39:50.663Z,4.50
2019-04-28T19:42:38.539Z,4.70
2019-04-28T19:45:26.018Z,4.80
2019-04-28T19:48:13.891Z,4.70
2019-04-28T19:51:01.474Z,4.70
2019-04-28T19:53:48.919Z,4.70
2019-04-28T19:56:59.067Z,4.70
2019-04-28T20:00:05.022Z,4.60
2019-04-28T20:02:52.548Z,4.60
2019-04-28T20:05:40.486Z,4.60
2019-04-28T20:08:28.520Z,4.60
2019-04-28T20:11:16.202Z,4.80
2019-04-28T20:14:03.607Z,4.80
2019-04-28T20:16:51.202Z,4.80
2019-04-28T20:19:39.127Z,4.90
2019-04-28T20:22:26.579Z,4.70
2019-04-28T20:25:14.210Z,4.80
2019-04-28T20:28:01.750Z,4.80
2019-04-28T20:30:49.419Z,4.90
2019-04-28T20:33:37.095Z,5.00
2019-04-28T20:36:32.936Z,5.00
2019-04-28T20:39:28.263Z,5.00
2019-04-28T20:42:33.663Z,4.80
2019-04-28T20:45:21.639Z,4.90
2019-04-28T20:48:08.963Z,4.90
2019-04-28T20:50:56.979Z,4.90
2019-04-28T20:53:44.687Z,4.90
2019-04-28T20:56:32.143Z,5.00
2019-04-28T20:59:19.854Z,5.00
2019-04-28T21:02:07.850Z,4.90
2019-04-28T21:04:55.882Z,4.90
2019-04-28T21:07:43.838Z,5.00
2019-04-28T21:10:38.346Z,5.00
2019-04-28T21:13:22.262Z,4.90
2019-04-28T21:16:10.314Z,4.90
2019-04-28T21:18:58.329Z,4.90
2019-04-28T21:21:46.573Z,4.90
2019-04-28T21:24:35.043Z,4.80
2019-04-28T21:27:22.849Z,4.80
2019-04-28T21:30:11.603Z,4.70
2019-04-28T21:33:01.886Z,4.80
2019-04-28T21:35:49.871Z,4.80
2019-04-28T21:38:37.834Z,4.80
2019-04-28T21:41:25.847Z,4.80
2019-04-28T21:44:26.213Z,4.80
2019-04-28T21:47:26.225Z,4.80
2019-04-28T21:50:13.878Z,4.80
2019-04-28T21:53:04.728Z,4.80
2019-04-28T21:55:52.750Z,4.80
2019-04-28T21:58:40.685Z,4.80
2019-04-28T22:01:28.634Z,4.80
2019-04-28T22:04:16.202Z,4.80
2019-04-28T22:07:03.818Z,4.80
2019-04-28T22:09:52.085Z,4.80
2019-04-28T22:12:39.925Z,4.80
2019-04-28T22:15:29.114Z,4.80
2019-04-28T22:18:20.336Z,4.80
2019-04-28T22:21:09.873Z,4.90
2019-04-28T22:24:19.551Z,4.90
2019-04-28T22:27:09.210Z,5.00
2019-04-28T22:29:57.313Z,4.80
2019-04-28T22:32:45.631Z,4.90
2019-04-28T22:35:33.558Z,5.00
2019-04-28T22:38:21.381Z,5.00
2019-04-28T22:41:10.377Z,5.00
2019-04-28T22:43:58.614Z,5.00
2019-04-28T22:46:46.799Z,5.00
2019-04-28T22:49:34.836Z,4.90
2019-04-28T22:52:22.646Z,5.00
2019-04-28T22:55:15.725Z,4.90
2019-04-28T22:58:13.783Z,4.70
2019-04-28T23:01:20.802Z,4.80
2019-04-28T23:04:31.006Z,4.90
2019-04-28T23:07:19.665Z,4.70
2019-04-28T23:10:09.406Z,4.60
2019-04-28T23:12:57.707Z,4.60
2019-04-28T23:15:46.613Z,4.50
2019-04-28T23:18:34.766Z,4.50
2019-04-28T23:21:50.868Z,4.40
2019-04-28T23:24:39.011Z,4.40
2019-04-28T23:27:27.326Z,4.50
2019-04-28T23:30:50.989Z,4.60
2019-04-28T23:33:39.060Z,4.70
2019-04-28T23:36:27.256Z,4.80
2019-04-28T23:39:15.486Z,4.80
2019-04-28T23:42:15.803Z,4.80
2019-04-28T23:45:04.531Z,4.80
2019-04-28T23:47:52.780Z,4.70
2019-04-28T23:50:49.134Z,4.70
2019-04-28T23:54:11.810Z,4.70
2019-04-28T23:57:00.036Z,4.70
2019-04-28T23:59:48.093Z,4.80
